createdAt,value
2023-04-24T00:00:43.288Z,14.30
2023-04-24T00:03:12.199Z,14.30
2023-04-24T00:05:42.568Z,14.20
2023-04-24T00:08:12.270Z,14.20
2023-04-24T00:10:40.806Z,14.10
2023-04-24T00:13:09.690Z,14.10
2023-04-24T00:15:38.257Z,14.10
2023-04-24T00:18:07.058Z,14.00
2023-04-24T00:20:36.529Z,14.00
2023-04-24T00:23:05.180Z,13.90
2023-04-24T00:25:34.849Z,13.90
2023-04-24T00:28:03.319Z,13.80
2023-04-24T00:30:31.810Z,13.80
2023-04-24T00:33:00.493Z,13.70
2023-04-24T00:35:28.975Z,13.70
2023-04-24T00:37:57.469Z,13.60
2023-04-24T00:40:25.826Z,13.60
2023-04-24T00:42:55.650Z,13.50
2023-04-24T00:45:24.148Z,13.50
2023-04-24T00:47:55.018Z,13.50
2023-04-24T00:50:23.631Z,13.50
2023-04-24T00:52:52.810Z,13.40
2023-04-24T00:55:21.417Z,13.40
2023-04-24T00:57:50.777Z,13.30
2023-04-24T01:00:21.228Z,13.30
2023-04-24T01:02:50.757Z,13.30
2023-04-24T01:05:20.062Z,13.30
2023-04-24T01:07:50.218Z,13.20
2023-04-24T01:10:19.265Z,13.30
2023-04-24T01:12:48.661Z,13.30
2023-04-24T01:15:17.107Z,13.30
2023-04-24T01:17:47.807Z,13.30
2023-04-24T01:20:16.807Z,13.30
2023-04-24T01:22:46.747Z,13.40
2023-04-24T01:25:15.293Z,13.40
2023-04-24T01:27:43.744Z,13.40
2023-04-24T01:30:14.611Z,13.40
2023-04-24T01:32:45.692Z,13.40
2023-04-24T01:35:14.249Z,13.40
2023-04-24T01:37:42.664Z,13.40
2023-04-24T01:40:12.926Z,13.30
2023-04-24T01:42:43.569Z,13.30
2023-04-24T01:45:14.445Z,13.30
2023-04-24T01:47:43.099Z,13.20
2023-04-24T01:50:12.504Z,13.20
2023-04-24T01:52:41.269Z,13.20
2023-04-24T01:55:13.425Z,13.10
2023-04-24T01:57:42.757Z,13.10
2023-04-24T02:00:12.365Z,13.10
2023-04-24T02:02:47.284Z,13.00
2023-04-24T02:05:16.705Z,13.00
2023-04-24T02:07:45.154Z,13.00
2023-04-24T02:10:14.810Z,12.90
2023-04-24T02:12:46.151Z,12.90
2023-04-24T02:15:14.733Z,12.90
2023-04-24T02:17:43.203Z,12.90
2023-04-24T02:20:12.044Z,12.90
2023-04-24T02:22:40.691Z,12.90
2023-04-24T02:25:09.679Z,12.80
2023-04-24T02:27:39.446Z,12.80
2023-04-24T02:30:09.237Z,12.70
2023-04-24T02:32:37.704Z,12.60
2023-04-24T02:35:07.055Z,12.60
2023-04-24T02:37:35.768Z,12.50
2023-04-24T02:40:04.947Z,12.50
2023-04-24T02:42:33.345Z,12.40
2023-04-24T02:45:03.246Z,12.40
2023-04-24T02:47:31.807Z,12.40
2023-04-24T02:50:01.736Z,12.40
2023-04-24T02:52:30.209Z,12.30
2023-04-24T02:54:58.744Z,12.30
2023-04-24T02:57:27.297Z,12.30
2023-04-24T02:59:55.719Z,12.20
2023-04-24T03:02:25.519Z,12.20
2023-04-24T03:04:54.302Z,12.20
2023-04-24T03:07:22.866Z,12.20
2023-04-24T03:09:51.343Z,12.20
2023-04-24T03:12:20.029Z,12.10
2023-04-24T03:14:48.391Z,12.10
2023-04-24T03:17:16.763Z,12.10
2023-04-24T03:19:47.065Z,12.10
2023-04-24T03:22:15.542Z,12.10
2023-04-24T03:24:44.651Z,12.10
2023-04-24T03:27:14.543Z,12.00
2023-04-24T03:29:57.056Z,12.00
2023-04-24T03:32:43.724Z,12.00
2023-04-24T03:35:16.851Z,12.00
2023-04-24T03:37:45.356Z,12.00
2023-04-24T03:40:32.034Z,12.00
2023-04-24T03:43:01.116Z,12.00
2023-04-24T03:45:29.649Z,12.10
2023-04-24T03:47:59.059Z,12.00
2023-04-24T03:50:30.209Z,12.00
2023-04-24T03:52:59.366Z,12.00
2023-04-24T03:55:41.360Z,12.00
2023-04-24T03:58:12.327Z,12.00
2023-04-24T04:00:41.423Z,12.00
2023-04-24T04:03:45.662Z,12.00
2023-04-24T04:06:20.616Z,12.00
2023-04-24T04:08:49.258Z,12.00
2023-04-24T04:11:17.689Z,12.00
2023-04-24T04:13:49.216Z,11.90
2023-04-24T04:16:20.827Z,11.90
2023-04-24T04:18:51.894Z,11.90
2023-04-24T04:21:21.872Z,11.90
2023-04-24T04:23:58.905Z,11.90
2023-04-24T04:26:36.544Z,11.90
2023-04-24T04:29:07.794Z,11.90
2023-04-24T04:31:40.411Z,11.90
2023-04-24T04:34:13.742Z,11.90
2023-04-24T04:36:45.558Z,11.90
2023-04-24T04:39:33.611Z,11.90
2023-04-24T04:42:08.771Z,11.90
2023-04-24T04:44:41.989Z,11.90
2023-04-24T04:47:14.691Z,12.00
2023-04-24T04:49:44.507Z,12.00
2023-04-24T04:52:26.275Z,12.00
2023-04-24T04:55:01.227Z,12.00
2023-04-24T04:57:49.562Z,12.10
2023-04-24T05:00:18.536Z,12.00
2023-04-24T05:02:52.868Z,12.10
2023-04-24T05:05:21.752Z,12.10
2023-04-24T05:07:52.864Z,12.10
2023-04-24T05:10:21.329Z,12.20
2023-04-24T05:12:50.783Z,12.20
2023-04-24T05:15:19.395Z,12.20
2023-04-24T05:17:47.841Z,12.30
2023-04-24T05:20:16.352Z,12.30
2023-04-24T05:22:45.138Z,12.40
2023-04-24T05:25:18.153Z,12.40
2023-04-24T05:27:54.498Z,12.50
2023-04-24T05:30:24.516Z,12.50
2023-04-24T05:32:53.433Z,12.60
2023-04-24T05:35:22.140Z,12.70
2023-04-24T05:37:50.511Z,12.70
2023-04-24T05:40:21.145Z,12.80
2023-04-24T05:42:50.509Z,12.90
2023-04-24T05:45:19.074Z,12.90
2023-04-24T05:47:47.567Z,13.00
2023-04-24T05:50:16.289Z,13.10
2023-04-24T05:52:44.823Z,13.20
2023-04-24T05:55:26.812Z,13.30
2023-04-24T05:57:56.335Z,13.50
2023-04-24T06:00:27.062Z,13.60
2023-04-24T06:03:05.104Z,13.80
2023-04-24T06:05:34.223Z,14.10
2023-04-24T06:08:04.852Z,14.50
2023-04-24T06:10:39.305Z,14.70
2023-04-24T06:13:09.679Z,14.90
2023-04-24T06:15:41.835Z,15.00
2023-04-24T06:18:14.112Z,15.10
2023-04-24T06:20:44.209Z,15.30
2023-04-24T06:23:12.661Z,15.60
2023-04-24T06:25:42.436Z,15.90
2023-04-24T06:28:14.702Z,16.30
2023-04-24T06:30:44.504Z,16.70
2023-04-24T06:35:47.734Z,17.20
2023-04-24T06:38:17.526Z,17.50
2023-04-24T06:40:47.865Z,17.80
2023-04-24T06:43:16.334Z,18.10
2023-04-24T06:45:46.359Z,18.20
2023-04-24T06:48:14.869Z,18.40
2023-04-24T06:50:43.363Z,18.40
2023-04-24T06:53:13.852Z,18.50
2023-04-24T06:55:44.305Z,18.60
2023-04-24T06:58:15.489Z,18.70
2023-04-24T07:00:43.952Z,18.70
2023-04-24T07:03:12.482Z,18.70
2023-04-24T07:05:41.141Z,18.40
2023-04-24T07:08:12.619Z,18.30
2023-04-24T07:10:41.322Z,18.00
2023-04-24T07:13:10.031Z,17.80
2023-04-24T07:15:40.983Z,17.60
2023-04-24T07:18:09.673Z,17.40
2023-04-24T07:20:38.107Z,17.20
2023-04-24T07:23:06.537Z,17.00
2023-04-24T07:25:35.214Z,16.90
2023-04-24T07:28:04.192Z,16.80
2023-04-24T07:30:33.952Z,16.70
2023-04-24T07:33:03.666Z,16.70
2023-04-24T07:35:32.154Z,16.70
2023-04-24T07:38:01.089Z,16.60
2023-04-24T07:40:29.658Z,16.60
2023-04-24T07:42:58.018Z,16.60
2023-04-24T07:45:27.273Z,16.60
2023-04-24T07:47:55.855Z,16.70
2023-04-24T07:50:25.756Z,16.70
2023-04-24T07:52:54.087Z,16.80
2023-04-24T07:55:24.774Z,16.80
2023-04-24T07:57:55.000Z,16.80
2023-04-24T08:00:23.613Z,16.80
2023-04-24T08:02:52.222Z,16.90
2023-04-24T08:05:20.818Z,16.90
2023-04-24T08:07:51.521Z,16.90
2023-04-24T08:10:19.984Z,16.90
2023-04-24T08:12:48.436Z,17.00
2023-04-24T08:15:17.149Z,17.00
2023-04-24T08:17:45.949Z,17.10
2023-04-24T08:20:15.682Z,17.10
2023-04-24T08:22:48.168Z,17.20
2023-04-24T08:25:19.201Z,17.30
2023-04-24T08:27:47.712Z,17.40
2023-04-24T08:30:16.476Z,17.50
2023-04-24T08:32:44.953Z,17.60
2023-04-24T08:35:13.677Z,17.70
2023-04-24T08:37:42.247Z,17.70
2023-04-24T08:40:16.539Z,17.80
2023-04-24T08:42:46.795Z,17.90
2023-04-24T08:45:15.634Z,18.10
2023-04-24T08:47:45.282Z,18.20
2023-04-24T08:50:14.007Z,18.40
2023-04-24T08:52:44.105Z,18.70
2023-04-24T08:55:12.615Z,18.90
2023-04-24T08:57:42.128Z,19.10
2023-04-24T09:00:12.785Z,19.40
2023-04-24T09:02:46.087Z,19.70
2023-04-24T09:05:16.110Z,19.90
2023-04-24T09:07:47.311Z,20.10
2023-04-24T09:10:16.319Z,20.30
2023-04-24T09:12:45.873Z,20.40
2023-04-24T09:15:16.407Z,20.50
2023-04-24T09:17:46.029Z,20.60
2023-04-24T09:20:15.148Z,20.60
2023-04-24T09:22:45.124Z,20.60
2023-04-24T09:25:13.873Z,20.70
2023-04-24T09:27:46.081Z,20.70
2023-04-24T09:30:23.053Z,20.80
2023-04-24T09:32:51.504Z,20.70
2023-04-24T09:35:20.026Z,20.60
2023-04-24T09:37:49.931Z,20.70
2023-04-24T09:40:19.902Z,20.70
2023-04-24T09:42:54.357Z,20.70
2023-04-24T09:45:24.423Z,20.60
2023-04-24T09:47:56.169Z,20.60
2023-04-24T09:50:24.992Z,20.50
2023-04-24T09:52:59.973Z,20.40
2023-04-24T09:55:28.780Z,20.30
2023-04-24T09:57:59.225Z,20.20
2023-04-24T10:00:32.382Z,20.00
2023-04-24T10:03:02.241Z,19.90
2023-04-24T10:05:33.570Z,19.80
2023-04-24T10:08:06.055Z,19.70
2023-04-24T10:10:36.392Z,19.50
2023-04-24T10:13:06.239Z,19.40
2023-04-24T10:15:37.027Z,19.30
2023-04-24T10:18:07.798Z,19.10
2023-04-24T10:20:40.026Z,19.00
2023-04-24T10:23:08.798Z,18.80
2023-04-24T10:25:38.847Z,18.70
2023-04-24T10:28:10.506Z,18.50
2023-04-24T10:30:44.923Z,18.40
2023-04-24T10:33:14.504Z,18.30
2023-04-24T10:35:46.589Z,18.20
2023-04-24T10:38:18.061Z,18.20
2023-04-24T10:40:46.557Z,18.10
2023-04-24T10:43:19.848Z,18.00
2023-04-24T10:48:54.185Z,18.00
2023-04-24T10:51:24.953Z,18.10
2023-04-24T10:53:53.731Z,18.10
2023-04-24T10:56:24.370Z,18.20
2023-04-24T10:58:55.423Z,18.20
2023-04-24T11:01:28.588Z,18.20
2023-04-24T11:03:59.852Z,18.30
2023-04-24T11:06:33.855Z,18.30
2023-04-24T11:09:07.170Z,18.30
2023-04-24T11:11:38.074Z,18.20
2023-04-24T11:14:08.676Z,18.20
2023-04-24T11:16:41.118Z,18.20
2023-04-24T11:19:12.373Z,18.20
2023-04-24T11:21:45.710Z,18.20
2023-04-24T11:24:32.020Z,18.20
2023-04-24T11:27:07.800Z,18.20
2023-04-24T11:29:44.872Z,18.20
2023-04-24T11:32:30.229Z,18.20
2023-04-24T11:35:01.624Z,18.20
2023-04-24T11:37:31.265Z,18.20
2023-04-24T11:40:01.494Z,18.20
2023-04-24T11:42:30.884Z,18.20
2023-04-24T11:45:01.414Z,18.20
2023-04-24T11:47:31.197Z,18.20
2023-04-24T11:50:01.895Z,18.30
2023-04-24T11:52:31.129Z,18.30
2023-04-24T11:55:00.128Z,18.40
2023-04-24T11:57:34.539Z,18.40
2023-04-24T12:00:04.594Z,18.50
2023-04-24T12:02:40.954Z,18.60
2023-04-24T12:05:13.098Z,18.60
2023-04-24T12:07:44.917Z,18.60
2023-04-24T12:10:13.367Z,18.70
2023-04-24T12:12:41.859Z,18.60
2023-04-24T12:15:13.474Z,18.60
2023-04-24T12:17:44.503Z,18.60
2023-04-24T12:20:16.361Z,18.60
2023-04-24T12:22:49.195Z,18.60
2023-04-24T12:25:19.333Z,18.70
2023-04-24T12:27:48.364Z,18.70
2023-04-24T12:30:18.949Z,18.70
2023-04-24T12:32:48.975Z,18.60
2023-04-24T12:35:24.166Z,18.60
2023-04-24T12:37:52.821Z,18.60
2023-04-24T12:40:23.382Z,18.50
2023-04-24T12:42:54.675Z,18.40
2023-04-24T12:45:26.556Z,18.30
2023-04-24T12:47:54.997Z,18.20
2023-04-24T12:50:24.826Z,18.20
2023-04-24T12:52:53.297Z,18.10
2023-04-24T12:55:21.754Z,18.00
2023-04-24T12:57:50.136Z,17.90
2023-04-24T13:00:20.270Z,17.90
2023-04-24T13:02:49.431Z,17.80
2023-04-24T13:05:18.232Z,17.80
2023-04-24T13:07:48.059Z,17.70
2023-04-24T13:10:16.469Z,17.70
2023-04-24T13:12:46.721Z,17.70
2023-04-24T13:15:15.548Z,17.60
2023-04-24T13:17:44.066Z,17.50
2023-04-24T13:20:12.734Z,17.40
2023-04-24T13:22:41.224Z,17.40
2023-04-24T13:25:11.319Z,17.30
2023-04-24T13:27:41.438Z,17.30
2023-04-24T13:30:10.799Z,17.20
2023-04-24T13:32:39.336Z,17.20
2023-04-24T13:35:08.096Z,17.20
2023-04-24T13:37:36.485Z,17.10
2023-04-24T13:40:07.137Z,17.10
2023-04-24T13:42:37.206Z,17.00
2023-04-24T13:45:21.307Z,17.00
2023-04-24T13:47:55.034Z,17.00
2023-04-24T13:50:23.980Z,17.00
2023-04-24T13:52:52.431Z,16.90
2023-04-24T13:55:21.110Z,16.90
2023-04-24T13:57:53.241Z,16.80
2023-04-24T14:00:22.173Z,16.80
2023-04-24T14:02:50.846Z,16.70
2023-04-24T14:05:19.617Z,16.70
2023-04-24T14:07:48.078Z,16.60
2023-04-24T14:10:16.617Z,16.60
2023-04-24T14:12:45.156Z,16.60
2023-04-24T14:15:15.321Z,16.50
2023-04-24T14:17:43.886Z,16.40
2023-04-24T14:20:12.973Z,16.40
2023-04-24T14:22:41.466Z,16.30
2023-04-24T14:25:10.596Z,16.30
2023-04-24T14:27:39.053Z,16.30
2023-04-24T14:30:08.640Z,16.30
2023-04-24T14:32:38.411Z,16.20
2023-04-24T14:35:07.705Z,16.30
2023-04-24T14:37:37.064Z,16.30
2023-04-24T14:42:40.185Z,16.20
2023-04-24T14:45:09.889Z,16.20
2023-04-24T14:47:40.592Z,16.10
2023-04-24T14:50:10.299Z,16.10
2023-04-24T14:52:38.815Z,16.00
2023-04-24T14:55:07.973Z,16.00
2023-04-24T14:57:37.034Z,15.90
2023-04-24T15:00:07.256Z,15.90
2023-04-24T15:02:37.966Z,15.80
2023-04-24T15:05:09.543Z,15.80
2023-04-24T15:07:38.455Z,15.70
2023-04-24T15:10:07.827Z,15.70
2023-04-24T15:12:36.406Z,15.60
2023-04-24T15:15:04.983Z,15.60
2023-04-24T15:17:33.643Z,15.60
2023-04-24T15:20:03.910Z,15.50
2023-04-24T15:22:33.731Z,15.50
2023-04-24T15:25:02.261Z,15.40
2023-04-24T15:27:42.743Z,15.40
2023-04-24T15:30:12.449Z,15.30
2023-04-24T15:32:41.639Z,15.20
2023-04-24T15:35:10.888Z,15.10
2023-04-24T15:37:40.879Z,15.10
2023-04-24T15:40:12.326Z,15.00
2023-04-24T15:42:41.090Z,14.90
2023-04-24T15:45:10.354Z,14.90
2023-04-24T15:47:38.839Z,14.90
2023-04-24T15:50:11.052Z,14.90
2023-04-24T15:52:42.536Z,14.90
2023-04-24T15:55:11.844Z,14.80
2023-04-24T15:57:40.500Z,14.80
2023-04-24T16:00:11.287Z,14.70
2023-04-24T16:02:43.011Z,14.70
2023-04-24T16:05:11.927Z,14.60
2023-04-24T16:07:42.132Z,14.60
2023-04-24T16:10:11.429Z,14.50
2023-04-24T16:12:42.914Z,14.50
2023-04-24T16:15:12.158Z,14.50
2023-04-24T16:17:40.691Z,14.40
2023-04-24T16:20:09.781Z,14.40
2023-04-24T16:22:38.186Z,14.30
2023-04-24T16:25:09.180Z,14.30
2023-04-24T16:27:38.338Z,14.30
2023-04-24T16:30:07.713Z,14.20
2023-04-24T16:32:36.326Z,14.20
2023-04-24T16:35:04.928Z,14.10
2023-04-24T16:37:33.483Z,14.10
2023-04-24T16:40:02.015Z,14.10
2023-04-24T16:42:31.853Z,14.00
2023-04-24T16:45:00.232Z,14.00
2023-04-24T16:47:28.674Z,14.00
2023-04-24T16:49:57.074Z,13.90
2023-04-24T16:52:25.620Z,13.90
2023-04-24T16:54:53.981Z,13.90
2023-04-24T16:57:22.472Z,13.80
2023-04-24T16:59:52.145Z,13.80
2023-04-24T17:02:20.627Z,13.80
2023-04-24T17:04:49.290Z,13.70
2023-04-24T17:07:17.802Z,13.70
2023-04-24T17:09:46.236Z,13.70
2023-04-24T17:12:14.572Z,13.70
2023-04-24T17:14:42.994Z,13.60
2023-04-24T17:17:12.817Z,13.60
2023-04-24T17:19:41.264Z,13.60
2023-04-24T17:22:09.696Z,13.60
2023-04-24T17:24:39.177Z,13.60
2023-04-24T17:27:14.438Z,13.60
2023-04-24T17:29:43.898Z,13.50
2023-04-24T17:32:13.609Z,13.50
2023-04-24T17:34:42.039Z,13.50
2023-04-24T17:37:10.558Z,13.40
2023-04-24T17:39:38.980Z,13.40
2023-04-24T17:42:07.731Z,13.40
2023-04-24T17:44:36.429Z,13.30
2023-04-24T17:47:05.175Z,13.30
2023-04-24T17:49:35.067Z,13.30
2023-04-24T17:52:03.452Z,13.20
2023-04-24T17:54:31.832Z,13.10
2023-04-24T17:57:00.230Z,13.10
2023-04-24T17:59:28.647Z,13.10
2023-04-24T18:01:57.874Z,13.00
2023-04-24T18:04:27.089Z,13.00
2023-04-24T18:06:56.925Z,12.90
2023-04-24T18:09:25.258Z,12.90
2023-04-24T18:11:54.044Z,12.90
2023-04-24T18:14:23.482Z,12.80
2023-04-24T18:16:51.867Z,12.80
2023-04-24T18:19:20.333Z,12.80
2023-04-24T18:21:48.813Z,12.80
2023-04-24T18:24:19.103Z,12.70
2023-04-24T18:26:47.525Z,12.70
2023-04-24T18:29:15.960Z,12.70
2023-04-24T18:31:44.592Z,12.60
2023-04-24T18:34:12.958Z,12.60
2023-04-24T18:36:41.347Z,12.60
2023-04-24T18:39:09.745Z,12.60
2023-04-24T18:41:39.493Z,12.50
2023-04-24T18:44:09.229Z,12.50
2023-04-24T18:46:41.607Z,12.50
2023-04-24T18:49:10.290Z,12.50
2023-04-24T18:51:52.626Z,12.50
2023-04-24T18:54:22.943Z,12.50
2023-04-24T18:56:52.752Z,12.40
2023-04-24T18:59:22.522Z,12.40
2023-04-24T19:01:51.107Z,12.40
2023-04-24T19:04:20.957Z,12.40
2023-04-24T19:06:49.641Z,12.40
2023-04-24T19:09:18.115Z,12.40
2023-04-24T19:11:46.808Z,12.40
2023-04-24T19:14:16.775Z,12.40
2023-04-24T19:16:45.178Z,12.40
2023-04-24T19:19:13.592Z,12.40
2023-04-24T19:21:42.097Z,12.40
2023-04-24T19:24:10.911Z,12.30
2023-04-24T19:26:39.350Z,12.30
2023-04-24T19:29:07.688Z,12.30
2023-04-24T19:31:37.353Z,12.30
2023-04-24T19:34:05.738Z,12.30
2023-04-24T19:36:34.238Z,12.30
2023-04-24T19:39:02.729Z,12.30
2023-04-24T19:41:31.305Z,12.30
2023-04-24T19:43:59.834Z,12.20
2023-04-24T19:46:28.417Z,12.20
2023-04-24T19:48:58.213Z,12.20
2023-04-24T19:51:27.689Z,12.20
2023-04-24T19:53:56.424Z,12.20
2023-04-24T19:56:24.888Z,12.20
2023-04-24T19:58:53.329Z,12.20
2023-04-24T20:01:21.860Z,12.20
2023-04-24T20:03:51.123Z,12.20
2023-04-24T20:06:21.043Z,12.20
2023-04-24T20:08:49.713Z,12.10
2023-04-24T20:11:18.583Z,12.10
2023-04-24T20:13:46.953Z,12.10
2023-04-24T20:16:15.437Z,12.10
2023-04-24T20:18:44.937Z,12.10
2023-04-24T20:21:13.300Z,12.10
2023-04-24T20:23:43.017Z,12.10
2023-04-24T20:26:11.493Z,12.10
2023-04-24T20:28:39.962Z,12.10
2023-04-24T20:31:08.412Z,12.00
2023-04-24T20:33:41.642Z,12.00
2023-04-24T20:36:10.638Z,12.00
2023-04-24T20:38:39.386Z,12.00
2023-04-24T20:41:10.426Z,12.00
2023-04-24T20:43:38.861Z,12.00
2023-04-24T20:46:07.319Z,12.00
2023-04-24T20:48:36.281Z,12.00
2023-04-24T20:51:04.912Z,12.00
2023-04-24T20:53:33.422Z,12.00
2023-04-24T20:56:02.188Z,12.00
2023-04-24T20:58:31.945Z,12.00
2023-04-24T21:01:00.566Z,12.00
2023-04-24T21:03:29.082Z,12.00
2023-04-24T21:05:57.562Z,11.90
2023-04-24T21:08:26.053Z,11.90
2023-04-24T21:10:54.378Z,11.90
2023-04-24T21:13:22.812Z,11.90
2023-04-24T21:15:52.661Z,11.90
2023-04-24T21:18:21.222Z,11.90
2023-04-24T21:20:50.006Z,11.90
2023-04-24T21:23:18.467Z,11.80
2023-04-24T21:25:47.140Z,11.80
2023-04-24T21:28:15.699Z,11.80
2023-04-24T21:30:44.145Z,11.80
2023-04-24T21:33:13.856Z,11.80
2023-04-24T21:35:42.224Z,11.80
2023-04-24T21:38:10.834Z,11.80
2023-04-24T21:40:39.286Z,11.70
2023-04-24T21:43:09.788Z,11.70
2023-04-24T21:45:38.426Z,11.70
2023-04-24T21:48:07.079Z,11.70
2023-04-24T21:50:36.673Z,11.70
2023-04-24T21:53:05.051Z,11.70
2023-04-24T21:55:33.515Z,11.70
2023-04-24T21:58:01.978Z,11.60
2023-04-24T22:00:30.493Z,11.60
2023-04-24T22:02:59.191Z,11.60
2023-04-24T22:05:27.605Z,11.60
2023-04-24T22:07:59.340Z,11.60
2023-04-24T22:10:28.509Z,11.60
2023-04-24T22:12:56.973Z,11.60
2023-04-24T22:15:25.545Z,11.60
2023-04-24T22:17:54.018Z,11.60
2023-04-24T22:20:22.807Z,11.60
2023-04-24T22:22:51.214Z,11.50
2023-04-24T22:25:21.130Z,11.50
2023-04-24T22:27:49.554Z,11.50
2023-04-24T22:30:18.282Z,11.50
2023-04-24T22:32:46.859Z,11.40
2023-04-24T22:35:15.371Z,11.50
2023-04-24T22:37:43.785Z,11.40
2023-04-24T22:40:12.625Z,11.40
2023-04-24T22:42:43.028Z,11.40
2023-04-24T22:45:13.471Z,11.40
2023-04-24T22:47:42.316Z,11.40
2023-04-24T22:50:11.747Z,11.40
2023-04-24T22:52:41.222Z,11.30
2023-04-24T22:55:10.456Z,11.40
2023-04-24T22:57:38.980Z,11.30
2023-04-24T23:00:11.476Z,11.30
2023-04-24T23:02:41.192Z,11.30
2023-04-24T23:05:10.902Z,11.30
2023-04-24T23:07:39.637Z,11.30
2023-04-24T23:10:08.983Z,11.30
2023-04-24T23:12:37.427Z,11.30
2023-04-24T23:15:06.628Z,11.30
2023-04-24T23:17:36.282Z,11.30
2023-04-24T23:20:05.633Z,11.30
2023-04-24T23:22:34.080Z,11.30
2023-04-24T23:25:02.768Z,11.30
2023-04-24T23:27:31.151Z,11.30
2023-04-24T23:29:59.502Z,11.30
2023-04-24T23:32:27.970Z,11.30
2023-04-24T23:34:57.726Z,11.30
2023-04-24T23:37:26.280Z,11.30
2023-04-24T23:39:54.844Z,11.30
2023-04-24T23:42:23.270Z,11.30
2023-04-24T23:44:51.590Z,11.30
2023-04-24T23:47:19.936Z,11.20
2023-04-24T23:49:48.293Z,11.30
2023-04-24T23:52:17.907Z,11.20
2023-04-24T23:54:46.404Z,11.30
2023-04-24T23:57:14.858Z,11.20
2023-04-24T23:59:43.251Z,11.20
